createdAt,value
2023-02-16T00:00:20.042Z,400
2023-02-16T00:01:19.546Z,397
2023-02-16T00:02:20.127Z,396
2023-02-16T00:03:19.627Z,405
2023-02-16T00:04:19.757Z,403
2023-02-16T00:06:19.895Z,407
2023-02-16T00:08:19.317Z,410
2023-02-16T00:09:19.136Z,403
2023-02-16T00:10:19.847Z,409
2023-02-16T00:11:20.178Z,414
2023-02-16T00:12:19.711Z,418
2023-02-16T00:13:19.430Z,419
2023-02-16T00:15:20.209Z,410
2023-02-16T00:16:19.531Z,402
2023-02-16T00:17:19.160Z,401
2023-02-16T00:18:19.815Z,400
2023-02-16T00:19:18.936Z,400
2023-02-16T00:20:20.197Z,412
2023-02-16T00:21:19.110Z,410
2023-02-16T00:23:19.009Z,404
2023-02-16T00:24:19.762Z,414
2023-02-16T00:25:19.298Z,413
2023-02-16T00:26:19.374Z,411
2023-02-16T00:27:19.427Z,419
2023-02-16T00:28:19.040Z,415
2023-02-16T00:30:20.318Z,410
2023-02-16T00:31:20.115Z,398
2023-02-16T00:33:19.429Z,400
2023-02-16T00:34:19.386Z,406
2023-02-16T00:36:19.736Z,397
2023-02-16T00:37:19.386Z,395
2023-02-16T00:38:19.479Z,400
2023-02-16T00:39:20.242Z,409
2023-02-16T00:40:19.695Z,408
2023-02-16T00:42:19.518Z,411
2023-02-16T00:43:19.122Z,402
2023-02-16T00:44:19.273Z,405
2023-02-16T00:46:19.567Z,404
2023-02-16T00:47:20.007Z,410
2023-02-16T00:48:19.364Z,404
2023-02-16T00:50:19.824Z,401
2023-02-16T00:51:25.810Z,399
2023-02-16T00:53:19.115Z,405
2023-02-16T00:54:19.998Z,406
2023-02-16T00:55:19.130Z,399
2023-02-16T00:56:19.573Z,405
2023-02-16T00:58:19.784Z,410
2023-02-16T00:59:19.113Z,409
2023-02-16T01:00:21.114Z,407
2023-02-16T01:02:19.279Z,401
2023-02-16T01:03:19.425Z,414
2023-02-16T01:05:19.491Z,403
2023-02-16T01:06:19.129Z,404
2023-02-16T01:07:20.379Z,409
2023-02-16T01:08:19.883Z,413
2023-02-16T01:09:19.820Z,407
2023-02-16T01:10:20.262Z,412
2023-02-16T01:11:19.375Z,408
2023-02-16T01:12:19.259Z,411
2023-02-16T01:13:19.298Z,413
2023-02-16T01:14:19.080Z,412
2023-02-16T01:15:19.460Z,402
2023-02-16T01:17:19.108Z,407
2023-02-16T01:18:19.941Z,416
2023-02-16T01:19:19.000Z,410
2023-02-16T01:20:19.754Z,401
2023-02-16T01:22:18.976Z,405
2023-02-16T01:23:19.072Z,407
2023-02-16T01:24:19.569Z,406
2023-02-16T01:26:19.507Z,409
2023-02-16T01:27:19.469Z,405
2023-02-16T01:29:19.852Z,411
2023-02-16T01:30:19.630Z,408
2023-02-16T01:32:19.674Z,398
2023-02-16T01:33:18.898Z,405
2023-02-16T01:34:19.358Z,400
2023-02-16T01:35:20.281Z,408
2023-02-16T01:36:19.547Z,419
2023-02-16T01:37:18.960Z,406
2023-02-16T01:38:19.256Z,399
2023-02-16T01:40:19.475Z,415
2023-02-16T01:41:19.672Z,412
2023-02-16T01:42:19.775Z,410
2023-02-16T01:43:19.903Z,414
2023-02-16T01:44:20.120Z,407
2023-02-16T01:45:20.132Z,405
2023-02-16T01:46:19.394Z,402
2023-02-16T01:47:19.266Z,401
2023-02-16T01:48:19.229Z,398
2023-02-16T01:50:19.723Z,400
2023-02-16T01:51:18.824Z,395
2023-02-16T01:52:19.201Z,402
2023-02-16T01:53:19.365Z,408
2023-02-16T01:54:19.367Z,405
2023-02-16T01:55:19.574Z,411
2023-02-16T01:57:19.173Z,410
2023-02-16T01:58:19.146Z,406
2023-02-16T01:59:19.050Z,404
2023-02-16T02:00:20.742Z,405
2023-02-16T02:01:19.914Z,402
2023-02-16T02:03:19.440Z,403
2023-02-16T02:04:20.359Z,399
2023-02-16T02:05:19.379Z,405
2023-02-16T02:06:19.285Z,403
2023-02-16T02:07:19.325Z,411
2023-02-16T02:08:19.202Z,404
2023-02-16T02:10:19.865Z,401
2023-02-16T02:12:20.049Z,402
2023-02-16T02:13:24.526Z,408
2023-02-16T02:14:19.568Z,417
2023-02-16T02:15:19.456Z,418
2023-02-16T02:16:20.875Z,413
2023-02-16T02:17:19.663Z,406
2023-02-16T02:18:19.599Z,409
2023-02-16T02:19:19.393Z,407
2023-02-16T02:21:19.442Z,422
2023-02-16T02:22:19.173Z,419
2023-02-16T02:23:27.378Z,407
2023-02-16T02:24:19.240Z,415
2023-02-16T02:25:20.090Z,422
2023-02-16T02:26:19.431Z,427
2023-02-16T02:27:18.969Z,423
2023-02-16T02:28:19.324Z,413
2023-02-16T02:29:19.130Z,406
2023-02-16T02:30:20.222Z,414
2023-02-16T02:31:20.258Z,422
2023-02-16T02:32:19.760Z,417
2023-02-16T02:33:19.092Z,416
2023-02-16T02:34:19.657Z,417
2023-02-16T02:35:19.466Z,410
2023-02-16T02:36:19.522Z,413
2023-02-16T02:37:20.025Z,419
2023-02-16T02:38:19.856Z,417
2023-02-16T02:39:19.755Z,416
2023-02-16T02:40:19.835Z,418
2023-02-16T02:41:20.023Z,419
2023-02-16T02:42:19.312Z,414
2023-02-16T02:44:20.136Z,420
2023-02-16T02:45:20.808Z,419
2023-02-16T02:47:19.416Z,414
2023-02-16T02:48:19.586Z,413
2023-02-16T02:49:19.505Z,411
2023-02-16T02:50:19.629Z,406
2023-02-16T02:51:19.316Z,401
2023-02-16T02:53:19.816Z,424
2023-02-16T02:54:19.844Z,425
2023-02-16T02:55:20.896Z,421
2023-02-16T02:56:19.667Z,410
2023-02-16T02:57:19.542Z,426
2023-02-16T02:58:19.489Z,436
2023-02-16T02:59:19.196Z,437
2023-02-16T03:00:20.632Z,427
2023-02-16T03:01:19.632Z,409
2023-02-16T03:02:19.640Z,413
2023-02-16T03:03:19.174Z,421
2023-02-16T03:04:19.408Z,420
2023-02-16T03:05:19.483Z,428
2023-02-16T03:06:19.428Z,425
2023-02-16T03:07:19.630Z,427
2023-02-16T03:08:19.269Z,417
2023-02-16T03:10:20.065Z,413
2023-02-16T03:11:19.439Z,420
2023-02-16T03:12:19.515Z,414
2023-02-16T03:13:19.585Z,422
2023-02-16T03:14:19.265Z,419
2023-02-16T03:15:19.419Z,415
2023-02-16T03:16:19.157Z,425
2023-02-16T03:17:20.330Z,431
2023-02-16T03:18:19.372Z,428
2023-02-16T03:19:19.229Z,420
2023-02-16T03:21:19.491Z,420
2023-02-16T03:22:19.349Z,429
2023-02-16T03:23:19.684Z,424
2023-02-16T03:24:19.263Z,419
2023-02-16T03:25:19.142Z,418
2023-02-16T03:27:19.267Z,417
2023-02-16T03:28:19.976Z,421
2023-02-16T03:29:19.287Z,419
2023-02-16T03:30:20.129Z,422
2023-02-16T03:31:19.839Z,421
2023-02-16T03:32:19.982Z,415
2023-02-16T03:33:19.280Z,408
2023-02-16T03:34:19.034Z,417
2023-02-16T03:35:19.770Z,419
2023-02-16T03:37:19.245Z,426
2023-02-16T03:38:19.545Z,420
2023-02-16T03:39:18.993Z,423
2023-02-16T03:40:20.457Z,436
2023-02-16T03:41:18.753Z,436
2023-02-16T03:42:19.481Z,443
2023-02-16T03:43:19.243Z,430
2023-02-16T03:44:19.813Z,423
2023-02-16T03:45:19.306Z,420
2023-02-16T03:46:19.457Z,424
2023-02-16T03:47:19.788Z,432
2023-02-16T03:48:19.494Z,425
2023-02-16T03:49:19.717Z,429
2023-02-16T03:50:19.478Z,435
2023-02-16T03:51:19.118Z,433
2023-02-16T03:52:19.907Z,438
2023-02-16T03:54:19.355Z,428
2023-02-16T03:55:19.789Z,419
2023-02-16T03:56:19.506Z,427
2023-02-16T03:57:19.954Z,423
2023-02-16T03:59:19.077Z,420
2023-02-16T04:00:20.870Z,422
2023-02-16T04:01:19.790Z,430
2023-02-16T04:02:19.931Z,431
2023-02-16T04:03:19.956Z,432
2023-02-16T04:04:19.589Z,434
2023-02-16T04:05:20.219Z,425
2023-02-16T04:06:19.763Z,421
2023-02-16T04:07:20.406Z,420
2023-02-16T04:08:19.971Z,421
2023-02-16T04:09:20.583Z,432
2023-02-16T04:10:20.281Z,435
2023-02-16T04:12:20.410Z,438
2023-02-16T04:13:19.779Z,439
2023-02-16T04:14:20.443Z,443
2023-02-16T04:15:19.928Z,442
2023-02-16T04:16:20.735Z,435
2023-02-16T04:17:19.591Z,433
2023-02-16T04:18:20.068Z,428
2023-02-16T04:19:19.625Z,430
2023-02-16T04:20:20.579Z,434
2023-02-16T04:21:20.025Z,420
2023-02-16T04:22:20.025Z,421
2023-02-16T04:23:20.217Z,420
2023-02-16T04:24:19.959Z,414
2023-02-16T04:25:21.322Z,413
2023-02-16T04:26:19.684Z,420
2023-02-16T04:27:20.204Z,426
2023-02-16T04:28:19.295Z,432
2023-02-16T04:29:19.819Z,427
2023-02-16T04:30:20.560Z,421
2023-02-16T04:32:19.468Z,422
2023-02-16T04:33:19.560Z,427
2023-02-16T04:34:19.012Z,427
2023-02-16T04:35:19.605Z,428
2023-02-16T04:36:19.560Z,424
2023-02-16T04:38:19.759Z,405
2023-02-16T04:39:18.816Z,407
2023-02-16T04:41:19.174Z,429
2023-02-16T04:43:19.358Z,425
2023-02-16T04:45:20.231Z,416
2023-02-16T04:46:19.760Z,412
2023-02-16T04:47:19.182Z,422
2023-02-16T04:48:18.914Z,431
2023-02-16T04:49:19.731Z,441
2023-02-16T04:50:19.803Z,446
2023-02-16T04:51:19.520Z,449
2023-02-16T04:52:19.608Z,433
2023-02-16T04:53:19.267Z,423
2023-02-16T04:54:19.349Z,424
2023-02-16T04:55:19.806Z,431
2023-02-16T04:56:19.996Z,436
2023-02-16T04:57:19.739Z,432
2023-02-16T04:58:18.944Z,422
2023-02-16T05:00:20.261Z,421
2023-02-16T05:01:19.070Z,423
2023-02-16T05:02:19.189Z,424
2023-02-16T05:03:19.144Z,429
2023-02-16T05:04:19.491Z,427
2023-02-16T05:06:33.187Z,432
2023-02-16T05:07:19.185Z,434
2023-02-16T05:08:20.905Z,426
2023-02-16T05:09:19.387Z,424
2023-02-16T05:10:19.774Z,423
2023-02-16T05:11:19.377Z,417
2023-02-16T05:12:19.392Z,414
2023-02-16T05:13:19.246Z,424
2023-02-16T05:14:19.311Z,425
2023-02-16T05:15:19.963Z,428
2023-02-16T05:16:19.647Z,421
2023-02-16T05:17:19.509Z,419
2023-02-16T05:19:19.020Z,422
2023-02-16T05:22:19.247Z,418
2023-02-16T05:23:19.033Z,413
2023-02-16T05:24:18.886Z,415
2023-02-16T05:26:19.272Z,424
2023-02-16T05:27:19.419Z,418
2023-02-16T05:28:19.521Z,414
2023-02-16T05:29:19.359Z,417
2023-02-16T05:30:20.144Z,409
2023-02-16T05:31:19.113Z,405
2023-02-16T05:33:19.602Z,427
2023-02-16T05:34:19.569Z,425
2023-02-16T05:35:19.765Z,430
2023-02-16T05:37:19.542Z,412
2023-02-16T05:38:19.575Z,418
2023-02-16T05:39:19.612Z,419
2023-02-16T05:40:19.573Z,423
2023-02-16T05:42:19.702Z,418
2023-02-16T05:43:19.673Z,424
2023-02-16T05:44:19.338Z,420
2023-02-16T05:45:20.026Z,427
2023-02-16T05:46:19.015Z,439
2023-02-16T05:47:19.087Z,440
2023-02-16T05:48:19.337Z,428
2023-02-16T05:50:19.824Z,423
2023-02-16T05:51:19.764Z,419
2023-02-16T05:52:19.444Z,425
2023-02-16T05:53:19.667Z,437
2023-02-16T05:54:20.073Z,440
2023-02-16T05:55:19.789Z,438
2023-02-16T05:56:19.642Z,432
2023-02-16T05:57:19.662Z,431
2023-02-16T05:58:19.695Z,437
2023-02-16T05:59:19.636Z,436
2023-02-16T06:00:20.789Z,433
2023-02-16T06:02:19.895Z,437
2023-02-16T06:04:19.561Z,444
2023-02-16T06:05:20.455Z,453
2023-02-16T06:06:19.327Z,454
2023-02-16T06:07:19.340Z,448
2023-02-16T06:08:19.376Z,441
2023-02-16T06:09:19.988Z,439
2023-02-16T06:10:19.941Z,435
2023-02-16T06:12:19.729Z,441
2023-02-16T06:13:20.790Z,449
2023-02-16T06:14:20.774Z,451
2023-02-16T06:15:20.152Z,440
2023-02-16T06:16:20.682Z,446
2023-02-16T06:17:20.882Z,451
2023-02-16T06:18:20.013Z,445
2023-02-16T06:19:19.989Z,451
2023-02-16T06:20:23.937Z,437
2023-02-16T06:21:24.062Z,426
2023-02-16T06:22:24.176Z,416
2023-02-16T06:23:22.893Z,411
2023-02-16T06:24:23.577Z,404
2023-02-16T06:25:25.467Z,398
2023-02-16T06:27:22.751Z,401
2023-02-16T06:28:22.390Z,414
2023-02-16T06:29:22.540Z,407
2023-02-16T06:30:24.829Z,396
2023-02-16T06:31:21.788Z,380
2023-02-16T06:33:20.322Z,390
2023-02-16T06:34:20.815Z,383
2023-02-16T06:35:21.907Z,385
2023-02-16T06:36:22.628Z,398
2023-02-16T06:37:21.681Z,384
2023-02-16T06:38:21.592Z,383
2023-02-16T06:39:20.069Z,395
2023-02-16T06:40:22.855Z,398
2023-02-16T06:41:19.971Z,403
2023-02-16T06:42:21.521Z,397
2023-02-16T06:44:20.119Z,386
2023-02-16T06:46:20.972Z,381
2023-02-16T06:47:19.637Z,376
2023-02-16T06:48:19.585Z,372
2023-02-16T06:49:20.482Z,378
2023-02-16T06:50:21.178Z,376
2023-02-16T06:51:20.236Z,380
2023-02-16T06:52:20.491Z,385
2023-02-16T06:53:19.073Z,386
2023-02-16T06:54:19.151Z,386
2023-02-16T06:55:21.546Z,396
2023-02-16T06:56:19.837Z,402
2023-02-16T06:57:19.841Z,393
2023-02-16T06:58:21.192Z,390
2023-02-16T06:59:21.067Z,381
2023-02-16T07:00:19.939Z,386
2023-02-16T07:01:21.073Z,388
2023-02-16T07:02:44.683Z,382
2023-02-16T07:03:22.994Z,374
2023-02-16T07:04:21.236Z,383
2023-02-16T07:05:21.400Z,386
2023-02-16T07:06:20.727Z,383
2023-02-16T07:07:20.260Z,382
2023-02-16T07:08:20.432Z,384
2023-02-16T07:10:20.852Z,383
2023-02-16T07:11:21.482Z,374
2023-02-16T07:12:20.824Z,376
2023-02-16T07:13:22.740Z,368
2023-02-16T07:14:20.396Z,370
2023-02-16T07:15:21.127Z,365
2023-02-16T07:16:20.645Z,358
2023-02-16T07:17:20.668Z,366
2023-02-16T07:19:20.896Z,372
2023-02-16T07:20:22.009Z,381
2023-02-16T07:21:21.605Z,378
2023-02-16T07:22:21.100Z,366
2023-02-16T07:23:21.035Z,364
2023-02-16T07:24:20.255Z,377
2023-02-16T07:25:21.086Z,379
2023-02-16T07:26:21.737Z,387
2023-02-16T07:27:20.726Z,388
2023-02-16T07:28:21.204Z,388
2023-02-16T07:29:20.820Z,376
2023-02-16T07:30:21.340Z,380
2023-02-16T07:31:22.937Z,384
2023-02-16T07:33:22.790Z,379
2023-02-16T07:34:22.018Z,371
2023-02-16T07:35:22.164Z,376
2023-02-16T07:36:21.957Z,382
2023-02-16T07:37:23.117Z,380
2023-02-16T07:38:28.171Z,374
2023-02-16T07:39:22.266Z,371
2023-02-16T07:40:21.908Z,369
2023-02-16T07:41:22.800Z,368
2023-02-16T07:43:21.372Z,372
2023-02-16T07:44:21.502Z,367
2023-02-16T07:46:21.522Z,375
2023-02-16T07:48:20.980Z,383
2023-02-16T07:49:21.548Z,376
2023-02-16T07:50:21.346Z,369
2023-02-16T07:51:21.460Z,368
2023-02-16T07:52:21.951Z,371
2023-02-16T07:53:21.657Z,378
2023-02-16T07:54:21.072Z,379
2023-02-16T07:55:21.736Z,376
2023-02-16T07:56:21.711Z,379
2023-02-16T07:58:21.435Z,375
2023-02-16T07:59:21.465Z,369
2023-02-16T08:00:22.457Z,378
2023-02-16T08:01:21.879Z,374
2023-02-16T08:02:22.227Z,376
2023-02-16T08:03:23.170Z,370
2023-02-16T08:04:21.697Z,361
2023-02-16T08:05:21.374Z,369
2023-02-16T08:06:21.377Z,374
2023-02-16T08:07:21.920Z,373
2023-02-16T08:08:21.588Z,372
2023-02-16T08:09:21.240Z,371
2023-02-16T08:10:21.966Z,373
2023-02-16T08:11:21.412Z,380
2023-02-16T08:12:21.379Z,384
2023-02-16T08:14:24.230Z,375
2023-02-16T08:15:21.552Z,371
2023-02-16T08:16:20.175Z,371
2023-02-16T08:17:21.679Z,369
2023-02-16T08:18:22.122Z,372
2023-02-16T08:19:22.000Z,376
2023-02-16T08:20:23.785Z,364
2023-02-16T08:21:20.886Z,372
2023-02-16T08:22:21.616Z,378
2023-02-16T08:23:21.574Z,379
2023-02-16T08:24:20.610Z,375
2023-02-16T08:25:21.593Z,372
2023-02-16T08:26:21.408Z,381
2023-02-16T08:27:20.944Z,378
2023-02-16T08:28:22.522Z,380
2023-02-16T08:29:21.417Z,373
2023-02-16T08:30:21.399Z,377
2023-02-16T08:31:20.381Z,375
2023-02-16T08:32:20.431Z,369
2023-02-16T08:33:20.804Z,361
2023-02-16T08:34:21.465Z,371
2023-02-16T08:35:20.906Z,374
2023-02-16T08:36:21.213Z,370
2023-02-16T08:37:20.656Z,371
2023-02-16T08:38:21.477Z,367
2023-02-16T08:39:21.367Z,373
2023-02-16T08:42:21.605Z,363
2023-02-16T08:43:20.649Z,379
2023-02-16T08:44:21.294Z,378
2023-02-16T08:45:21.068Z,370
2023-02-16T08:46:21.850Z,369
2023-02-16T08:47:21.088Z,376
2023-02-16T08:49:20.199Z,380
2023-02-16T08:50:21.400Z,368
2023-02-16T08:51:21.088Z,373
2023-02-16T08:52:21.175Z,365
2023-02-16T08:53:21.407Z,359
2023-02-16T08:54:21.080Z,377
2023-02-16T08:55:21.269Z,373
2023-02-16T08:56:20.977Z,363
2023-02-16T08:57:20.955Z,369
2023-02-16T08:58:21.071Z,366
2023-02-16T08:59:21.501Z,371
2023-02-16T09:01:21.192Z,380
2023-02-16T09:02:20.958Z,376
2023-02-16T09:03:21.627Z,374
2023-02-16T09:04:21.010Z,382
2023-02-16T09:05:21.411Z,381
2023-02-16T09:06:21.253Z,387
2023-02-16T09:07:20.974Z,379
2023-02-16T09:08:21.387Z,366
2023-02-16T09:09:20.968Z,361
2023-02-16T09:11:20.974Z,365
2023-02-16T09:12:21.301Z,374
2023-02-16T09:13:21.372Z,369
2023-02-16T09:14:20.973Z,371
2023-02-16T09:16:20.979Z,367
2023-02-16T09:17:20.644Z,384
2023-02-16T09:19:21.049Z,361
2023-02-16T09:21:21.010Z,373
2023-02-16T09:22:21.531Z,384
2023-02-16T09:23:21.417Z,381
2023-02-16T09:24:21.851Z,380
2023-02-16T09:25:21.960Z,373
2023-02-16T09:26:22.186Z,371
2023-02-16T09:27:20.720Z,378
2023-02-16T09:28:21.293Z,372
2023-02-16T09:29:21.511Z,369
2023-02-16T09:30:21.830Z,363
2023-02-16T09:31:21.580Z,374
2023-02-16T09:32:21.835Z,375
2023-02-16T09:33:22.443Z,373
2023-02-16T09:34:22.208Z,377
2023-02-16T09:35:21.967Z,366
2023-02-16T09:36:22.423Z,367
2023-02-16T09:37:21.900Z,377
2023-02-16T09:38:26.650Z,369
2023-02-16T09:39:21.237Z,371
2023-02-16T09:40:26.991Z,383
2023-02-16T09:41:22.178Z,372
2023-02-16T09:42:30.084Z,376
2023-02-16T09:43:21.290Z,382
2023-02-16T09:44:22.128Z,380
2023-02-16T09:45:21.466Z,370
2023-02-16T09:46:22.707Z,364
2023-02-16T09:47:21.402Z,372
2023-02-16T09:48:22.027Z,371
2023-02-16T09:49:21.790Z,372
2023-02-16T09:50:38.615Z,373
2023-02-16T09:51:33.918Z,369
2023-02-16T09:52:21.144Z,365
2023-02-16T09:53:22.081Z,366
2023-02-16T09:54:22.231Z,369
2023-02-16T09:55:21.936Z,366
2023-02-16T09:56:21.956Z,363
2023-02-16T09:57:21.898Z,352
2023-02-16T09:58:22.284Z,362
2023-02-16T09:59:22.615Z,375
2023-02-16T10:00:25.207Z,372
2023-02-16T10:01:21.932Z,366
2023-02-16T10:03:22.063Z,380
2023-02-16T10:04:21.825Z,372
2023-02-16T10:06:21.218Z,384
2023-02-16T10:07:21.173Z,377
2023-02-16T10:09:21.877Z,374
2023-02-16T10:10:21.798Z,373
2023-02-16T10:11:22.075Z,374
2023-02-16T10:12:21.820Z,375
2023-02-16T10:14:21.176Z,372
2023-02-16T10:15:21.892Z,379
2023-02-16T10:17:20.840Z,363
2023-02-16T10:18:21.554Z,372
2023-02-16T10:20:21.639Z,362
2023-02-16T10:21:21.384Z,367
2023-02-16T10:22:20.753Z,375
2023-02-16T10:23:21.498Z,372
2023-02-16T10:24:20.912Z,360
2023-02-16T10:25:21.490Z,366
2023-02-16T10:26:21.473Z,371
2023-02-16T10:27:20.516Z,361
2023-02-16T10:28:22.724Z,363
2023-02-16T10:29:21.002Z,392
2023-02-16T10:30:22.693Z,394
2023-02-16T10:31:21.730Z,392
2023-02-16T10:32:21.677Z,384
2023-02-16T10:33:21.168Z,363
2023-02-16T10:34:23.145Z,359
2023-02-16T10:35:21.547Z,368
2023-02-16T10:36:20.717Z,364
2023-02-16T10:37:21.909Z,372
2023-02-16T10:38:22.462Z,366
2023-02-16T10:39:21.434Z,363
2023-02-16T10:41:22.006Z,364
2023-02-16T10:42:21.757Z,355
2023-02-16T10:43:21.623Z,359
2023-02-16T10:44:20.683Z,358
2023-02-16T10:45:21.124Z,347
2023-02-16T10:46:21.357Z,356
2023-02-16T10:47:22.183Z,355
2023-02-16T10:48:21.955Z,360
2023-02-16T10:49:21.197Z,359
2023-02-16T10:51:21.416Z,362
2023-02-16T10:52:20.949Z,361
2023-02-16T10:53:21.750Z,365
2023-02-16T10:54:21.506Z,360
2023-02-16T10:55:21.428Z,366
2023-02-16T10:56:21.072Z,370
2023-02-16T10:57:21.206Z,360
2023-02-16T10:58:22.645Z,358
2023-02-16T10:59:21.356Z,359
2023-02-16T11:00:23.153Z,358
2023-02-16T11:01:22.727Z,347
2023-02-16T11:02:22.002Z,362
2023-02-16T11:03:22.130Z,370
2023-02-16T11:05:22.219Z,362
2023-02-16T11:06:21.242Z,361
2023-02-16T11:07:21.281Z,360
2023-02-16T11:08:20.898Z,367
2023-02-16T11:09:21.840Z,364
2023-02-16T11:10:22.248Z,355
2023-02-16T11:11:22.891Z,348
2023-02-16T11:12:22.490Z,344
2023-02-16T11:13:21.820Z,351
2023-02-16T11:14:22.186Z,350
2023-02-16T11:15:22.758Z,347
2023-02-16T11:16:20.897Z,356
2023-02-16T11:17:21.734Z,365
2023-02-16T11:18:21.800Z,360
2023-02-16T11:19:22.185Z,357
2023-02-16T11:20:21.524Z,365
2023-02-16T11:21:22.139Z,368
2023-02-16T11:22:20.754Z,365
2023-02-16T11:23:21.752Z,375
2023-02-16T11:24:21.743Z,364
2023-02-16T11:25:22.061Z,348
2023-02-16T11:26:21.701Z,363
2023-02-16T11:28:21.619Z,354
2023-02-16T11:29:20.996Z,343
2023-02-16T11:30:21.775Z,340
2023-02-16T11:31:21.670Z,351
2023-02-16T11:32:21.649Z,357
2023-02-16T11:33:21.917Z,359
2023-02-16T11:34:21.312Z,352
2023-02-16T11:35:21.833Z,360
2023-02-16T11:36:21.909Z,356
2023-02-16T11:37:21.850Z,350
2023-02-16T11:38:21.994Z,353
2023-02-16T11:39:21.742Z,355
2023-02-16T11:41:21.986Z,349
2023-02-16T11:42:21.052Z,338
2023-02-16T11:43:21.914Z,347
2023-02-16T11:44:21.433Z,357
2023-02-16T11:45:21.541Z,362
2023-02-16T11:46:22.139Z,364
2023-02-16T11:47:21.841Z,361
2023-02-16T11:48:21.581Z,354
2023-02-16T11:49:21.537Z,364
2023-02-16T11:50:21.440Z,363
2023-02-16T11:51:20.916Z,353
2023-02-16T11:52:22.268Z,360
2023-02-16T11:53:21.383Z,356
2023-02-16T11:54:21.810Z,353
2023-02-16T11:55:21.538Z,358
2023-02-16T11:56:21.297Z,352
2023-02-16T11:57:26.425Z,363
2023-02-16T11:58:21.407Z,360
2023-02-16T11:59:21.643Z,349
2023-02-16T12:00:22.816Z,353
2023-02-16T12:01:22.145Z,356
2023-02-16T12:02:20.847Z,358
2023-02-16T12:05:22.465Z,358
2023-02-16T12:07:22.620Z,355
2023-02-16T12:08:22.056Z,352
2023-02-16T12:09:20.989Z,349
2023-02-16T12:10:21.508Z,351
2023-02-16T12:11:21.282Z,353
2023-02-16T12:12:22.545Z,345
2023-02-16T12:13:21.828Z,353
2023-02-16T12:14:21.804Z,359
2023-02-16T12:16:22.245Z,352
2023-02-16T12:17:21.392Z,350
2023-02-16T12:18:21.995Z,348
2023-02-16T12:19:22.280Z,363
2023-02-16T12:20:22.001Z,362
2023-02-16T12:21:21.906Z,352
2023-02-16T12:22:22.310Z,348
2023-02-16T12:23:21.989Z,358
2023-02-16T12:24:21.493Z,357
2023-02-16T12:25:22.192Z,352
2023-02-16T12:26:22.992Z,350
2023-02-16T12:27:22.604Z,361
2023-02-16T12:28:23.154Z,351
2023-02-16T12:29:21.395Z,360
2023-02-16T12:30:22.811Z,363
2023-02-16T12:31:41.189Z,359
2023-02-16T12:32:21.252Z,363
2023-02-16T12:33:22.133Z,360
2023-02-16T12:34:21.973Z,352
2023-02-16T12:35:22.465Z,349
2023-02-16T12:36:21.304Z,350
2023-02-16T12:37:21.044Z,360
2023-02-16T12:38:21.743Z,363
2023-02-16T12:39:22.197Z,364
2023-02-16T12:40:21.786Z,368
2023-02-16T12:41:22.104Z,352
2023-02-16T12:42:22.297Z,348
2023-02-16T12:43:21.843Z,369
2023-02-16T12:44:21.754Z,367
2023-02-16T12:45:22.395Z,356
2023-02-16T12:46:23.898Z,355
2023-02-16T12:47:21.683Z,352
2023-02-16T12:48:21.452Z,340
2023-02-16T12:49:21.380Z,339
2023-02-16T12:50:22.284Z,345
2023-02-16T12:51:21.539Z,353
2023-02-16T12:52:21.976Z,342
2023-02-16T12:53:22.092Z,350
2023-02-16T12:54:24.599Z,359
2023-02-16T12:55:22.182Z,346
2023-02-16T12:56:21.464Z,352
2023-02-16T12:57:21.658Z,350
2023-02-16T12:58:21.524Z,352
2023-02-16T12:59:21.104Z,357
2023-02-16T13:00:23.445Z,360
2023-02-16T13:01:22.445Z,368
2023-02-16T13:02:21.817Z,356
2023-02-16T13:03:21.890Z,354
2023-02-16T13:04:21.451Z,355
2023-02-16T13:05:21.907Z,357
2023-02-16T13:06:21.398Z,353
2023-02-16T13:07:22.138Z,350
2023-02-16T13:08:21.776Z,353
2023-02-16T13:09:21.681Z,358
2023-02-16T13:10:22.434Z,363
2023-02-16T13:11:22.153Z,354
2023-02-16T13:12:21.634Z,360
2023-02-16T13:13:22.012Z,371
2023-02-16T13:14:21.782Z,383
2023-02-16T13:15:22.637Z,377
2023-02-16T13:16:30.079Z,373
2023-02-16T13:17:22.440Z,369
2023-02-16T13:18:22.005Z,364
2023-02-16T13:19:21.811Z,360
2023-02-16T13:20:22.911Z,364
2023-02-16T13:21:21.965Z,365
2023-02-16T13:23:21.662Z,358
2023-02-16T13:24:22.309Z,363
2023-02-16T13:25:22.581Z,356
2023-02-16T13:26:22.505Z,347
2023-02-16T13:27:21.480Z,357
2023-02-16T13:28:22.514Z,351
2023-02-16T13:29:21.890Z,367
2023-02-16T13:31:22.589Z,368
2023-02-16T13:32:22.786Z,366
2023-02-16T13:33:22.139Z,360
2023-02-16T13:34:21.733Z,361
2023-02-16T13:35:21.556Z,374
2023-02-16T13:36:22.271Z,376
2023-02-16T13:37:21.829Z,357
2023-02-16T13:38:21.598Z,355
2023-02-16T13:39:21.671Z,361
2023-02-16T13:40:21.506Z,355
2023-02-16T13:41:22.810Z,352
2023-02-16T13:42:22.086Z,357
2023-02-16T13:43:21.808Z,365
2023-02-16T13:44:21.611Z,350
2023-02-16T13:45:22.234Z,343
2023-02-16T13:46:21.685Z,344
2023-02-16T13:47:21.762Z,341
2023-02-16T13:48:21.686Z,340
2023-02-16T13:49:21.746Z,346
2023-02-16T13:50:21.927Z,350
2023-02-16T13:51:21.746Z,347
2023-02-16T13:52:21.430Z,348
2023-02-16T13:53:21.420Z,343
2023-02-16T13:54:21.626Z,345
2023-02-16T13:55:21.315Z,347
2023-02-16T13:56:21.095Z,353
2023-02-16T13:57:22.292Z,352
2023-02-16T13:58:21.635Z,357
2023-02-16T13:59:21.239Z,355
2023-02-16T14:00:22.839Z,358
2023-02-16T14:01:22.032Z,354
2023-02-16T14:02:21.833Z,361
2023-02-16T14:03:21.695Z,355
2023-02-16T14:04:21.565Z,354
2023-02-16T14:05:21.961Z,352
2023-02-16T14:06:21.425Z,350
2023-02-16T14:07:22.072Z,345
2023-02-16T14:08:21.783Z,347
2023-02-16T14:09:21.152Z,361
2023-02-16T14:10:22.054Z,360
2023-02-16T14:11:21.512Z,354
2023-02-16T14:13:21.822Z,356
2023-02-16T14:15:21.684Z,358
2023-02-16T14:16:21.683Z,349
2023-02-16T14:17:21.414Z,353
2023-02-16T14:18:21.639Z,346
2023-02-16T14:19:21.685Z,349
2023-02-16T14:20:26.581Z,351
2023-02-16T14:21:21.891Z,345
2023-02-16T14:22:21.368Z,339
2023-02-16T14:24:21.547Z,352
2023-02-16T14:25:21.556Z,361
2023-02-16T14:26:21.512Z,355
2023-02-16T14:27:21.515Z,367
2023-02-16T14:28:26.272Z,358
2023-02-16T14:29:21.526Z,354
2023-02-16T14:33:20.953Z,346
2023-02-16T14:34:20.830Z,345
2023-02-16T14:35:21.859Z,341
2023-02-16T14:36:21.923Z,335
2023-02-16T14:37:21.113Z,342
2023-02-16T14:38:21.409Z,344
2023-02-16T14:39:22.922Z,348
2023-02-16T14:41:21.068Z,357
2023-02-16T14:42:21.794Z,353
2023-02-16T14:43:21.329Z,351
2023-02-16T14:44:21.177Z,348
2023-02-16T14:45:22.721Z,349
2023-02-16T14:46:35.218Z,350
2023-02-16T14:47:21.086Z,355
2023-02-16T14:48:22.035Z,362
2023-02-16T14:49:21.639Z,363
2023-02-16T14:50:21.703Z,361
2023-02-16T14:51:21.587Z,359
2023-02-16T14:53:21.515Z,347
2023-02-16T14:54:21.932Z,335
2023-02-16T14:55:21.649Z,336
2023-02-16T14:56:20.883Z,341
2023-02-16T14:57:21.594Z,358
2023-02-16T14:58:21.876Z,356
2023-02-16T14:59:21.881Z,343
2023-02-16T15:00:23.597Z,350
2023-02-16T15:01:21.478Z,357
2023-02-16T15:02:21.898Z,363
2023-02-16T15:03:23.223Z,349
2023-02-16T15:04:22.247Z,355
2023-02-16T15:05:21.701Z,353
2023-02-16T15:06:21.696Z,345
2023-02-16T15:07:21.078Z,348
2023-02-16T15:08:21.429Z,354
2023-02-16T15:09:22.139Z,358
2023-02-16T15:10:23.382Z,356
2023-02-16T15:11:21.049Z,361
2023-02-16T15:12:21.869Z,356
2023-02-16T15:13:22.100Z,350
2023-02-16T15:14:22.191Z,356
2023-02-16T15:15:21.848Z,360
2023-02-16T15:16:21.799Z,352
2023-02-16T15:18:21.774Z,354
2023-02-16T15:19:23.137Z,355
2023-02-16T15:20:21.969Z,360
2023-02-16T15:21:21.430Z,359
2023-02-16T15:23:21.165Z,358
2023-02-16T15:24:21.045Z,359
2023-02-16T15:26:21.669Z,356
2023-02-16T15:27:21.655Z,346
2023-02-16T15:28:21.089Z,348